sensor_id;sensor_type;location;lat;lon;timestamp;temperature;humidity
18882;DHT22;9573;50.948;11.600;2022-12-07T05:22:40;2.20;99.90
18882;DHT22;9573;50.948;11.600;2022-12-07T05:25:08;2.30;99.90
18882;DHT22;9573;50.948;11.600;2022-12-07T05:27:36;2.30;99.90
18882;DHT22;9573;50.948;11.600;2022-12-07T05:30:04;2.40;99.90
18882;DHT22;9573;50.948;11.600;2022-12-07T05:32:34;2.60;99.90
18882;DHT22;9573;50.948;11.600;2022-12-07T05:35:01;2.70;99.90
18882;DHT22;9573;50.948;11.600;2022-12-07T05:37:28;2.90;99.90
18882;DHT22;9573;50.948;11.600;2022-12-07T05:39:56;3.00;99.90
18882;DHT22;9573;50.948;11.600;2022-12-07T05:42:24;3.10;99.90
18882;DHT22;9573;50.948;11.600;2022-12-07T05:44:51;3.30;99.90
18882;DHT22;9573;50.948;11.600;2022-12-07T05:47:18;3.30;99.90
18882;DHT22;9573;50.948;11.600;2022-12-07T05:49:48;3.40;99.90
18882;DHT22;9573;50.948;11.600;2022-12-07T05:52:15;3.40;99.90
18882;DHT22;9573;50.948;11.600;2022-12-07T05:54:42;3.50;99.90
18882;DHT22;9573;50.948;11.600;2022-12-07T05:57:11;3.50;99.90
18882;DHT22;9573;50.948;11.600;2022-12-07T05:59:38;3.50;99.90
18882;DHT22;9573;50.948;11.600;2022-12-07T06:02:06;3.60;99.90
18882;DHT22;9573;50.948;11.600;2022-12-07T06:04:35;3.60;99.90
18882;DHT22;9573;50.948;11.600;2022-12-07T06:07:04;3.60;99.90
18882;DHT22;9573;50.948;11.600;2022-12-07T06:09:33;3.70;99.90
18882;DHT22;9573;50.948;11.600;2022-12-07T06:12:01;3.70;99.90
18882;DHT22;9573;50.948;11.600;2022-12-07T06:14:47;3.80;99.90
18882;DHT22;9573;50.948;11.600;2022-12-07T14:02:35;6.20;99.90
18882;DHT22;9573;50.948;11.600;2022-12-07T14:05:10;5.90;99.90
18882;DHT22;9573;50.948;11.600;2022-12-07T14:07:49;5.80;99.90
18882;DHT22;9573;50.948;11.600;2022-12-07T14:10:26;5.80;99.90
18882;DHT22;9573;50.948;11.600;2022-12-07T14:12:54;5.90;99.90
18882;DHT22;9573;50.948;11.600;2022-12-07T14:15:24;5.90;99.90
18882;DHT22;9573;50.948;11.600;2022-12-07T14:17:55;5.70;99.90
18882;DHT22;9573;50.948;11.600;2022-12-07T14:20:30;5.70;99.90
18882;DHT22;9573;50.948;11.600;2022-12-07T14:22:58;5.60;99.90
18882;DHT22;9573;50.948;11.600;2022-12-07T14:25:44;5.60;99.90
18882;DHT22;9573;50.948;11.600;2022-12-07T14:28:25;5.60;99.90
18882;DHT22;9573;50.948;11.600;2022-12-07T14:30:53;5.60;99.90
18882;DHT22;9573;50.948;11.600;2022-12-07T14:33:21;5.40;99.90
18882;DHT22;9573;50.948;11.600;2022-12-07T14:35:49;5.30;99.90
18882;DHT22;9573;50.948;11.600;2022-12-07T14:38:20;5.30;99.90
18882;DHT22;9573;50.948;11.600;2022-12-07T14:40:48;5.20;99.90
18882;DHT22;9573;50.948;11.600;2022-12-07T14:43:16;5.00;99.90
18882;DHT22;9573;50.948;11.600;2022-12-07T14:45:44;4.90;99.90
18882;DHT22;9573;50.948;11.600;2022-12-07T14:48:12;4.70;99.90
18882;DHT22;9573;50.948;11.600;2022-12-07T14:50:45;4.70;99.90
18882;DHT22;9573;50.948;11.600;2022-12-07T14:53:18;4.50;99.90
18882;DHT22;9573;50.948;11.600;2022-12-07T14:55:57;4.50;99.90
18882;DHT22;9573;50.948;11.600;2022-12-07T14:58:25;4.30;99.90
18882;DHT22;9573;50.948;11.600;2022-12-07T15:00:52;4.30;99.90
18882;DHT22;9573;50.948;11.600;2022-12-07T15:03:19;4.20;99.90
18882;DHT22;9573;50.948;11.600;2022-12-07T15:05:47;4.10;99.90
18882;DHT22;9573;50.948;11.600;2022-12-07T15:08:15;4.10;99.90
18882;DHT22;9573;50.948;11.600;2022-12-07T15:10:42;4.00;99.90
18882;DHT22;9573;50.948;11.600;2022-12-07T15:13:09;3.90;99.90
18882;DHT22;9573;50.948;11.600;2022-12-07T15:15:54;3.90;99.90
18882;DHT22;9573;50.948;11.600;2022-12-07T15:18:22;3.80;99.90
18882;DHT22;9573;50.948;11.600;2022-12-07T15:20:51;3.80;99.90
18882;DHT22;9573;50.948;11.600;2022-12-07T15:23:19;3.70;99.90
18882;DHT22;9573;50.948;11.600;2022-12-07T15:25:48;3.60;99.90
18882;DHT22;9573;50.948;11.600;2022-12-07T15:28:16;3.50;99.90
18882;DHT22;9573;50.948;11.600;2022-12-07T15:30:44;3.50;99.90
18882;DHT22;9573;50.948;11.600;2022-12-07T15:33:12;3.50;99.90
18882;DHT22;9573;50.948;11.600;2022-12-07T15:35:39;3.40;99.90
18882;DHT22;9573;50.948;11.600;2022-12-07T15:38:09;3.40;99.90
18882;DHT22;9573;50.948;11.600;2022-12-07T15:40:36;3.30;99.90
18882;DHT22;9573;50.948;11.600;2022-12-07T15:43:04;3.20;99.90
18882;DHT22;9573;50.948;11.600;2022-12-07T15:45:51;3.20;99.90
18882;DHT22;9573;50.948;11.600;2022-12-07T15:48:17;3.10;99.90
18882;DHT22;9573;50.948;11.600;2022-12-07T15:50:45;3.00;99.90
18882;DHT22;9573;50.948;11.600;2022-12-07T15:53:13;3.10;99.90
18882;DHT22;9573;50.948;11.600;2022-12-07T15:55:40;3.00;99.90
18882;DHT22;9573;50.948;11.600;2022-12-07T15:58:07;3.00;99.90
18882;DHT22;9573;50.948;11.600;2022-12-07T16:00:35;3.00;99.90
18882;DHT22;9573;50.948;11.600;2022-12-07T16:03:02;3.10;99.90
18882;DHT22;9573;50.948;11.600;2022-12-07T16:05:29;3.20;99.90
18882;DHT22;9573;50.948;11.600;2022-12-07T16:07:56;3.20;99.90
18882;DHT22;9573;50.948;11.600;2022-12-07T16:10:27;3.30;99.90
18882;DHT22;9573;50.948;11.600;2022-12-07T16:12:54;3.40;99.90
18882;DHT22;9573;50.948;11.600;2022-12-07T16:15:21;3.40;99.90
18882;DHT22;9573;50.948;11.600;2022-12-07T16:17:50;3.40;99.90
18882;DHT22;9573;50.948;11.600;2022-12-07T16:20:17;3.40;99.90
18882;DHT22;9573;50.948;11.600;2022-12-07T16:22:44;3.40;99.90
18882;DHT22;9573;50.948;11.600;2022-12-07T16:25:12;3.40;99.90
18882;DHT22;9573;50.948;11.600;2022-12-07T16:27:43;3.40;99.90
18882;DHT22;9573;50.948;11.600;2022-12-07T16:30:13;3.40;99.90
18882;DHT22;9573;50.948;11.600;2022-12-07T16:32:41;3.40;99.90
18882;DHT22;9573;50.948;11.600;2022-12-07T16:35:09;3.40;99.90
18882;DHT22;9573;50.948;11.600;2022-12-07T16:37:36;3.40;99.90
18882;DHT22;9573;50.948;11.600;2022-12-07T16:40:04;3.40;99.90
18882;DHT22;9573;50.948;11.600;2022-12-07T16:42:33;3.40;99.90
18882;DHT22;9573;50.948;11.600;2022-12-07T16:45:03;3.50;99.90
18882;DHT22;9573;50.948;11.600;2022-12-07T16:47:31;5.10;99.90
18882;DHT22;9573;50.948;11.600;2022-12-07T16:49:58;3.60;99.90
18882;DHT22;9573;50.948;11.600;2022-12-07T16:52:25;3.60;99.90
18882;DHT22;9573;50.948;11.600;2022-12-07T16:54:52;3.70;99.90
18882;DHT22;9573;50.948;11.600;2022-12-07T16:57:20;3.70;99.90
18882;DHT22;9573;50.948;11.600;2022-12-07T16:59:47;3.70;99.90
18882;DHT22;9573;50.948;11.600;2022-12-07T17:02:15;3.50;99.90
18882;DHT22;9573;50.948;11.600;2022-12-07T17:04:42;3.50;99.90
18882;DHT22;9573;50.948;11.600;2022-12-07T17:07:10;3.40;99.90
18882;DHT22;9573;50.948;11.600;2022-12-07T17:09:37;3.40;99.90
18882;DHT22;9573;50.948;11.600;2022-12-07T17:12:05;3.30;99.90
18882;DHT22;9573;50.948;11.600;2022-12-07T17:14:32;3.30;99.90
18882;DHT22;9573;50.948;11.600;2022-12-07T17:17:19;3.30;99.90
18882;DHT22;9573;50.948;11.600;2022-12-07T17:19:46;3.30;99.90
18882;DHT22;9573;50.948;11.600;2022-12-07T17:22:13;3.20;99.90
18882;DHT22;9573;50.948;11.600;2022-12-07T17:24:40;3.20;99.90
18882;DHT22;9573;50.948;11.600;2022-12-07T17:27:07;3.20;99.90
18882;DHT22;9573;50.948;11.600;2022-12-07T17:29:35;3.10;99.90
18882;DHT22;9573;50.948;11.600;2022-12-07T17:32:02;3.10;99.90
18882;DHT22;9573;50.948;11.600;2022-12-07T17:34:30;3.10;99.90
18882;DHT22;9573;50.948;11.600;2022-12-07T17:36:58;3.10;99.90
18882;DHT22;9573;50.948;11.600;2022-12-07T17:39:25;3.10;99.90
18882;DHT22;9573;50.948;11.600;2022-12-07T17:41:52;3.20;99.90
18882;DHT22;9573;50.948;11.600;2022-12-07T17:44:36;3.20;99.90
18882;DHT22;9573;50.948;11.600;2022-12-07T17:47:04;3.20;99.90
18882;DHT22;9573;50.948;11.600;2022-12-07T17:49:34;3.20;99.90
18882;DHT22;9573;50.948;11.600;2022-12-07T17:52:01;3.30;99.90
18882;DHT22;9573;50.948;11.600;2022-12-07T17:54:54;3.30;99.90
18882;DHT22;9573;50.948;11.600;2022-12-07T17:57:21;3.40;99.90
18882;DHT22;9573;50.948;11.600;2022-12-07T17:59:48;3.40;99.90
18882;DHT22;9573;50.948;11.600;2022-12-07T18:02:16;3.30;99.90
18882;DHT22;9573;50.948;11.600;2022-12-07T18:04:45;3.30;99.90
18882;DHT22;9573;50.948;11.600;2022-12-07T18:07:13;3.30;99.90
18882;DHT22;9573;50.948;11.600;2022-12-07T18:09:40;3.30;99.90
18882;DHT22;9573;50.948;11.600;2022-12-07T18:12:08;3.20;99.90
18882;DHT22;9573;50.948;11.600;2022-12-07T18:14:35;3.20;99.90
18882;DHT22;9573;50.948;11.600;2022-12-07T18:17:05;3.20;99.90
18882;DHT22;9573;50.948;11.600;2022-12-07T18:19:34;3.20;99.90
18882;DHT22;9573;50.948;11.600;2022-12-07T18:22:05;3.20;99.90
18882;DHT22;9573;50.948;11.600;2022-12-07T18:24:33;3.10;99.90
18882;DHT22;9573;50.948;11.600;2022-12-07T18:27:03;3.10;99.90
18882;DHT22;9573;50.948;11.600;2022-12-07T18:29:30;3.10;99.90
18882;DHT22;9573;50.948;11.600;2022-12-07T18:31:59;3.10;99.90
18882;DHT22;9573;50.948;11.600;2022-12-07T18:34:26;3.10;99.90
18882;DHT22;9573;50.948;11.600;2022-12-07T18:36:55;3.20;99.90
18882;DHT22;9573;50.948;11.600;2022-12-07T18:39:27;3.10;99.90
18882;DHT22;9573;50.948;11.600;2022-12-07T18:41:54;3.10;99.90
18882;DHT22;9573;50.948;11.600;2022-12-07T18:44:21;3.10;99.90
18882;DHT22;9573;50.948;11.600;2022-12-07T18:46:48;3.20;99.90
18882;DHT22;9573;50.948;11.600;2022-12-07T18:49:16;3.10;99.90
18882;DHT22;9573;50.948;11.600;2022-12-07T18:51:43;3.10;99.90
18882;DHT22;9573;50.948;11.600;2022-12-07T18:54:11;3.10;99.90
18882;DHT22;9573;50.948;11.600;2022-12-07T18:56:39;3.20;99.90
18882;DHT22;9573;50.948;11.600;2022-12-07T18:59:06;3.10;99.90
18882;DHT22;9573;50.948;11.600;2022-12-07T19:01:56;1.80;99.90
18882;DHT22;9573;50.948;11.600;2022-12-07T19:04:24;3.10;99.90
18882;DHT22;9573;50.948;11.600;2022-12-07T19:06:54;3.10;99.90
18882;DHT22;9573;50.948;11.600;2022-12-07T19:09:22;3.10;99.90
18882;DHT22;9573;50.948;11.600;2022-12-07T19:11:51;3.70;99.90
18882;DHT22;9573;50.948;11.600;2022-12-07T19:14:23;3.10;99.90
18882;DHT22;9573;50.948;11.600;2022-12-07T19:16:52;3.10;99.90
18882;DHT22;9573;50.948;11.600;2022-12-07T19:19:29;3.10;99.90
18882;DHT22;9573;50.948;11.600;2022-12-07T19:21:58;3.10;99.90
18882;DHT22;9573;50.948;11.600;2022-12-07T19:24:25;3.10;99.90
18882;DHT22;9573;50.948;11.600;2022-12-07T19:26:54;3.10;99.90
18882;DHT22;9573;50.948;11.600;2022-12-07T19:29:21;3.10;99.90
18882;DHT22;9573;50.948;11.600;2022-12-07T19:31:48;3.10;99.90
18882;DHT22;9573;50.948;11.600;2022-12-07T19:34:16;3.10;99.90
18882;DHT22;9573;50.948;11.600;2022-12-07T19:36:44;3.10;99.90
18882;DHT22;9573;50.948;11.600;2022-12-07T19:39:15;3.10;99.90
18882;DHT22;9573;50.948;11.600;2022-12-07T19:41:44;3.10;99.90
18882;DHT22;9573;50.948;11.600;2022-12-07T19:44:17;3.10;99.90
18882;DHT22;9573;50.948;11.600;2022-12-07T19:46:47;3.10;99.90
18882;DHT22;9573;50.948;11.600;2022-12-07T19:49:16;3.10;99.90
18882;DHT22;9573;50.948;11.600;2022-12-07T19:51:45;3.10;99.90
18882;DHT22;9573;50.948;11.600;2022-12-07T19:54:18;3.10;99.90
18882;DHT22;9573;50.948;11.600;2022-12-07T19:56:49;3.20;99.90
18882;DHT22;9573;50.948;11.600;2022-12-07T19:59:21;3.10;99.90
18882;DHT22;9573;50.948;11.600;2022-12-07T20:01:49;3.20;99.90
18882;DHT22;9573;50.948;11.600;2022-12-07T20:04:19;3.20;99.90
18882;DHT22;9573;50.948;11.600;2022-12-07T20:06:49;3.20;99.90
18882;DHT22;9573;50.948;11.600;2022-12-07T20:09:18;3.30;99.90
18882;DHT22;9573;50.948;11.600;2022-12-07T20:11:46;3.40;99.90
18882;DHT22;9573;50.948;11.600;2022-12-07T20:14:33;3.40;99.90
18882;DHT22;9573;50.948;11.600;2022-12-07T20:17:00;3.50;99.90
18882;DHT22;9573;50.948;11.600;2022-12-07T20:19:28;3.60;99.90
18882;DHT22;9573;50.948;11.600;2022-12-07T20:21:55;3.60;99.90
18882;DHT22;9573;50.948;11.600;2022-12-07T20:24:25;3.60;99.90
18882;DHT22;9573;50.948;11.600;2022-12-07T20:26:56;3.60;99.90
18882;DHT22;9573;50.948;11.600;2022-12-07T20:29:24;3.60;99.90
18882;DHT22;9573;50.948;11.600;2022-12-07T20:31:53;3.60;99.90
18882;DHT22;9573;50.948;11.600;2022-12-07T20:34:20;3.60;99.90
18882;DHT22;9573;50.948;11.600;2022-12-07T20:36:49;3.50;99.90
18882;DHT22;9573;50.948;11.600;2022-12-07T20:39:17;3.40;99.90
18882;DHT22;9573;50.948;11.600;2022-12-07T20:41:44;3.40;99.90
18882;DHT22;9573;50.948;11.600;2022-12-07T20:44:32;3.30;99.90
18882;DHT22;9573;50.948;11.600;2022-12-07T20:47:02;3.30;99.90
18882;DHT22;9573;50.948;11.600;2022-12-07T20:49:30;3.30;99.90
18882;DHT22;9573;50.948;11.600;2022-12-07T20:51:57;3.30;99.90
18882;DHT22;9573;50.948;11.600;2022-12-07T20:54:25;3.20;99.90
18882;DHT22;9573;50.948;11.600;2022-12-07T20:56:52;3.20;99.90
18882;DHT22;9573;50.948;11.600;2022-12-07T20:59:19;3.30;99.90
